sensor_id;sensor_type;location;lat;lon;timestamp;pressure;altitude;pressure_sealevel;temperature;humidity
64628;BME280;68467;50.960;0.314;2023-08-06T00:01:01;99380.43;;;11.02;100.00
64628;BME280;68467;50.960;0.314;2023-08-06T00:03:29;99382.55;;;11.49;100.00
64628;BME280;68467;50.960;0.314;2023-08-06T00:05:56;99383.04;;;11.53;100.00
64628;BME280;68467;50.960;0.314;2023-08-06T00:08:24;99382.17;;;11.56;100.00
64628;BME280;68467;50.960;0.314;2023-08-06T00:10:51;99387.45;;;12.06;100.00
64628;BME280;68467;50.960;0.314;2023-08-06T00:13:18;99389.00;;;11.48;100.00
64628;BME280;68467;50.960;0.314;2023-08-06T00:15:45;99390.34;;;11.46;100.00
64628;BME280;68467;50.960;0.314;2023-08-06T00:18:12;99389.17;;;11.70;100.00
64628;BME280;68467;50.960;0.314;2023-08-06T00:20:39;99395.32;;;11.68;100.00
64628;BME280;68467;50.960;0.314;2023-08-06T00:23:07;99402.95;;;11.52;100.00
64628;BME280;68467;50.960;0.314;2023-08-06T00:25:34;99403.10;;;11.89;100.00
64628;BME280;68467;50.960;0.314;2023-08-06T00:28:02;99411.58;;;12.33;100.00
64628;BME280;68467;50.960;0.314;2023-08-06T00:30:29;99424.12;;;12.39;100.00
64628;BME280;68467;50.960;0.314;2023-08-06T00:32:56;99418.19;;;11.14;100.00
64628;BME280;68467;50.960;0.314;2023-08-06T00:35:23;99424.61;;;11.71;100.00
64628;BME280;68467;50.960;0.314;2023-08-06T00:37:50;99432.40;;;11.41;100.00
64628;BME280;68467;50.960;0.314;2023-08-06T00:40:20;99433.91;;;11.21;100.00
64628;BME280;68467;50.960;0.314;2023-08-06T00:42:47;99441.37;;;11.52;100.00
64628;BME280;68467;50.960;0.314;2023-08-06T00:45:15;99446.59;;;11.51;100.00
64628;BME280;68467;50.960;0.314;2023-08-06T00:47:42;99454.24;;;11.56;100.00
64628;BME280;68467;50.960;0.314;2023-08-06T00:50:10;99455.05;;;12.16;100.00
64628;BME280;68467;50.960;0.314;2023-08-06T00:52:38;99458.06;;;12.46;100.00
64628;BME280;68467;50.960;0.314;2023-08-06T00:55:06;99452.85;;;12.07;100.00
64628;BME280;68467;50.960;0.314;2023-08-06T00:57:34;99452.35;;;12.41;100.00
64628;BME280;68467;50.960;0.314;2023-08-06T01:00:02;99460.64;;;11.91;100.00
64628;BME280;68467;50.960;0.314;2023-08-06T01:02:29;99460.85;;;11.80;100.00
64628;BME280;68467;50.960;0.314;2023-08-06T01:04:56;99468.96;;;11.27;100.00
64628;BME280;68467;50.960;0.314;2023-08-06T01:07:43;99474.76;;;11.60;100.00
64628;BME280;68467;50.960;0.314;2023-08-06T01:10:26;99481.02;;;12.07;100.00
64628;BME280;68467;50.960;0.314;2023-08-06T01:13:06;99484.52;;;11.94;100.00
64628;BME280;68467;50.960;0.314;2023-08-06T01:15:41;99493.12;;;12.00;100.00
64628;BME280;68467;50.960;0.314;2023-08-06T01:18:11;99495.14;;;11.56;100.00
64628;BME280;68467;50.960;0.314;2023-08-06T01:20:38;99503.49;;;11.80;100.00
64628;BME280;68467;50.960;0.314;2023-08-06T01:23:06;99516.77;;;11.49;100.00
64628;BME280;68467;50.960;0.314;2023-08-06T01:25:35;99520.66;;;11.44;100.00
64628;BME280;68467;50.960;0.314;2023-08-06T01:28:18;99521.28;;;11.47;100.00
64628;BME280;68467;50.960;0.314;2023-08-06T01:30:50;99518.81;;;11.93;100.00
64628;BME280;68467;50.960;0.314;2023-08-06T01:33:21;99526.12;;;11.59;100.00
64628;BME280;68467;50.960;0.314;2023-08-06T01:35:50;99524.97;;;11.41;100.00
64628;BME280;68467;50.960;0.314;2023-08-06T01:38:18;99531.47;;;11.51;100.00
64628;BME280;68467;50.960;0.314;2023-08-06T01:40:45;99532.53;;;11.89;100.00
64628;BME280;68467;50.960;0.314;2023-08-06T01:43:12;99533.02;;;11.90;100.00
64628;BME280;68467;50.960;0.314;2023-08-06T01:45:46;99540.19;;;11.32;100.00
64628;BME280;68467;50.960;0.314;2023-08-06T01:48:13;99540.91;;;11.95;100.00
64628;BME280;68467;50.960;0.314;2023-08-06T01:50:40;99545.17;;;11.96;100.00
64628;BME280;68467;50.960;0.314;2023-08-06T01:53:07;99545.21;;;11.74;100.00
64628;BME280;68467;50.960;0.314;2023-08-06T01:55:34;99549.82;;;11.90;100.00
64628;BME280;68467;50.960;0.314;2023-08-06T01:58:01;99555.96;;;11.91;100.00
64628;BME280;68467;50.960;0.314;2023-08-06T02:00:29;99554.18;;;11.69;100.00
64628;BME280;68467;50.960;0.314;2023-08-06T02:02:56;99558.12;;;11.88;100.00
64628;BME280;68467;50.960;0.314;2023-08-06T02:05:23;99554.99;;;11.37;100.00
64628;BME280;68467;50.960;0.314;2023-08-06T02:07:50;99553.28;;;11.38;100.00
64628;BME280;68467;50.960;0.314;2023-08-06T02:10:17;99555.80;;;11.21;100.00
64628;BME280;68467;50.960;0.314;2023-08-06T02:12:44;99554.52;;;11.63;100.00
64628;BME280;68467;50.960;0.314;2023-08-06T02:15:11;99555.97;;;11.55;100.00
64628;BME280;68467;50.960;0.314;2023-08-06T02:17:38;99555.76;;;11.47;100.00
64628;BME280;68467;50.960;0.314;2023-08-06T02:20:06;99562.09;;;11.16;100.00
64628;BME280;68467;50.960;0.314;2023-08-06T02:22:33;99560.79;;;11.14;100.00
64628;BME280;68467;50.960;0.314;2023-08-06T02:25:00;99566.06;;;11.16;100.00
64628;BME280;68467;50.960;0.314;2023-08-06T02:27:27;99562.46;;;10.62;100.00
64628;BME280;68467;50.960;0.314;2023-08-06T02:29:54;99570.16;;;10.69;100.00
64628;BME280;68467;50.960;0.314;2023-08-06T02:32:21;99569.27;;;11.20;100.00
64628;BME280;68467;50.960;0.314;2023-08-06T02:34:48;99572.22;;;10.54;100.00
64628;BME280;68467;50.960;0.314;2023-08-06T02:37:15;99576.87;;;10.66;100.00
64628;BME280;68467;50.960;0.314;2023-08-06T02:39:43;99581.57;;;10.69;100.00
64628;BME280;68467;50.960;0.314;2023-08-06T02:42:09;99577.68;;;10.80;100.00
64628;BME280;68467;50.960;0.314;2023-08-06T02:44:36;99582.95;;;10.76;100.00
64628;BME280;68467;50.960;0.314;2023-08-06T02:47:04;99589.59;;;11.13;100.00
64628;BME280;68467;50.960;0.314;2023-08-06T02:49:31;99591.56;;;10.85;100.00
64628;BME280;68467;50.960;0.314;2023-08-06T02:51:58;99594.73;;;10.31;100.00
64628;BME280;68467;50.960;0.314;2023-08-06T02:54:25;99598.90;;;10.22;100.00
64628;BME280;68467;50.960;0.314;2023-08-06T02:56:53;99600.97;;;10.90;100.00
64628;BME280;68467;50.960;0.314;2023-08-06T02:59:20;99602.95;;;10.59;100.00
64628;BME280;68467;50.960;0.314;2023-08-06T03:01:47;99594.72;;;10.47;100.00
64628;BME280;68467;50.960;0.314;2023-08-06T03:04:14;99595.07;;;11.07;100.00
64628;BME280;68467;50.960;0.314;2023-08-06T03:06:41;99595.38;;;10.65;100.00
64628;BME280;68467;50.960;0.314;2023-08-06T03:09:08;99588.96;;;10.19;100.00
64628;BME280;68467;50.960;0.314;2023-08-06T03:11:35;99593.39;;;10.16;100.00
64628;BME280;68467;50.960;0.314;2023-08-06T03:14:02;99593.75;;;9.87;100.00
64628;BME280;68467;50.960;0.314;2023-08-06T03:16:29;99592.44;;;10.23;100.00
64628;BME280;68467;50.960;0.314;2023-08-06T03:18:56;99594.17;;;10.43;100.00
64628;BME280;68467;50.960;0.314;2023-08-06T03:21:23;99596.81;;;10.39;100.00
64628;BME280;68467;50.960;0.314;2023-08-06T03:23:51;99602.39;;;9.97;100.00
64628;BME280;68467;50.960;0.314;2023-08-06T03:26:17;99603.74;;;10.02;100.00
64628;BME280;68467;50.960;0.314;2023-08-06T03:28:45;99605.36;;;9.95;100.00
64628;BME280;68467;50.960;0.314;2023-08-06T03:31:12;99604.92;;;10.09;100.00
64628;BME280;68467;50.960;0.314;2023-08-06T03:33:39;99605.12;;;10.04;100.00
64628;BME280;68467;50.960;0.314;2023-08-06T03:36:06;99605.73;;;9.84;100.00
64628;BME280;68467;50.960;0.314;2023-08-06T03:38:33;99605.03;;;10.05;100.00
64628;BME280;68467;50.960;0.314;2023-08-06T03:41:00;99608.14;;;9.70;100.00
64628;BME280;68467;50.960;0.314;2023-08-06T03:43:27;99611.09;;;10.10;100.00
64628;BME280;68467;50.960;0.314;2023-08-06T03:45:54;99605.14;;;9.90;100.00
64628;BME280;68467;50.960;0.314;2023-08-06T03:48:22;99610.24;;;9.73;100.00
64628;BME280;68467;50.960;0.314;2023-08-06T03:50:49;99610.73;;;9.87;100.00
64628;BME280;68467;50.960;0.314;2023-08-06T03:53:16;99621.36;;;9.92;100.00
64628;BME280;68467;50.960;0.314;2023-08-06T03:55:43;99621.86;;;10.07;100.00
64628;BME280;68467;50.960;0.314;2023-08-06T03:58:10;99626.41;;;9.94;100.00
64628;BME280;68467;50.960;0.314;2023-08-06T04:00:37;99625.39;;;10.06;100.00
64628;BME280;68467;50.960;0.314;2023-08-06T04:03:04;99623.47;;;9.50;100.00
64628;BME280;68467;50.960;0.314;2023-08-06T04:05:31;99631.62;;;10.22;100.00
64628;BME280;68467;50.960;0.314;2023-08-06T04:07:58;99636.39;;;9.89;100.00
64628;BME280;68467;50.960;0.314;2023-08-06T04:10:26;99636.57;;;10.08;100.00
64628;BME280;68467;50.960;0.314;2023-08-06T04:12:53;99635.77;;;9.66;100.00
64628;BME280;68467;50.960;0.314;2023-08-06T04:15:20;99651.88;;;9.48;100.00
64628;BME280;68467;50.960;0.314;2023-08-06T04:17:47;99650.81;;;9.77;100.00
64628;BME280;68467;50.960;0.314;2023-08-06T04:20:14;99657.31;;;9.88;100.00
64628;BME280;68467;50.960;0.314;2023-08-06T04:22:41;99659.77;;;9.69;100.00
64628;BME280;68467;50.960;0.314;2023-08-06T04:25:09;99670.23;;;9.69;100.00
64628;BME280;68467;50.960;0.314;2023-08-06T04:27:36;99663.14;;;9.49;100.00
64628;BME280;68467;50.960;0.314;2023-08-06T04:30:04;99667.07;;;10.21;100.00
64628;BME280;68467;50.960;0.314;2023-08-06T04:32:32;99667.36;;;9.97;100.00
64628;BME280;68467;50.960;0.314;2023-08-06T04:34:59;99673.46;;;9.60;100.00
64628;BME280;68467;50.960;0.314;2023-08-06T04:37:26;99679.51;;;9.41;100.00
64628;BME280;68467;50.960;0.314;2023-08-06T04:39:53;99677.08;;;9.60;100.00
64628;BME280;68467;50.960;0.314;2023-08-06T04:42:20;99681.37;;;9.49;100.00
64628;BME280;68467;50.960;0.314;2023-08-06T04:44:47;99681.69;;;9.17;100.00
64628;BME280;68467;50.960;0.314;2023-08-06T04:47:14;99689.37;;;9.57;100.00
64628;BME280;68467;50.960;0.314;2023-08-06T04:49:41;99690.61;;;9.50;100.00
64628;BME280;68467;50.960;0.314;2023-08-06T04:52:09;99689.40;;;9.79;100.00
64628;BME280;68467;50.960;0.314;2023-08-06T04:54:36;99694.52;;;9.74;100.00
64628;BME280;68467;50.960;0.314;2023-08-06T04:57:04;99690.88;;;9.80;100.00
64628;BME280;68467;50.960;0.314;2023-08-06T04:59:31;99695.00;;;9.87;100.00
64628;BME280;68467;50.960;0.314;2023-08-06T05:01:58;99692.35;;;9.53;100.00
64628;BME280;68467;50.960;0.314;2023-08-06T05:04:25;99696.12;;;9.30;100.00
64628;BME280;68467;50.960;0.314;2023-08-06T05:06:52;99698.92;;;9.17;100.00
64628;BME280;68467;50.960;0.314;2023-08-06T05:09:19;99704.64;;;9.33;100.00
64628;BME280;68467;50.960;0.314;2023-08-06T05:11:46;99711.46;;;9.29;100.00
64628;BME280;68467;50.960;0.314;2023-08-06T05:14:13;99708.58;;;9.53;100.00
64628;BME280;68467;50.960;0.314;2023-08-06T05:16:41;99715.69;;;9.63;100.00
64628;BME280;68467;50.960;0.314;2023-08-06T05:19:08;99715.16;;;9.41;100.00
64628;BME280;68467;50.960;0.314;2023-08-06T05:21:35;99721.02;;;10.07;100.00
64628;BME280;68467;50.960;0.314;2023-08-06T05:24:02;99722.49;;;10.11;100.00
64628;BME280;68467;50.960;0.314;2023-08-06T05:26:30;99725.25;;;10.17;100.00
64628;BME280;68467;50.960;0.314;2023-08-06T05:28:57;99729.18;;;9.81;100.00
64628;BME280;68467;50.960;0.314;2023-08-06T05:31:24;99734.72;;;10.26;100.00
64628;BME280;68467;50.960;0.314;2023-08-06T05:33:52;99732.42;;;9.48;100.00
64628;BME280;68467;50.960;0.314;2023-08-06T05:36:20;99734.60;;;9.91;100.00
64628;BME280;68467;50.960;0.314;2023-08-06T05:38:47;99741.28;;;9.73;100.00
64628;BME280;68467;50.960;0.314;2023-08-06T05:41:14;99741.62;;;10.23;100.00
64628;BME280;68467;50.960;0.314;2023-08-06T05:43:41;99744.58;;;10.22;100.00
64628;BME280;68467;50.960;0.314;2023-08-06T05:46:08;99746.66;;;10.00;100.00
64628;BME280;68467;50.960;0.314;2023-08-06T05:48:35;99749.03;;;10.05;100.00
64628;BME280;68467;50.960;0.314;2023-08-06T05:51:03;99750.83;;;10.22;100.00
64628;BME280;68467;50.960;0.314;2023-08-06T05:53:29;99755.02;;;10.29;100.00
64628;BME280;68467;50.960;0.314;2023-08-06T05:55:57;99756.23;;;9.99;100.00
64628;BME280;68467;50.960;0.314;2023-08-06T05:58:24;99761.25;;;9.02;100.00
64628;BME280;68467;50.960;0.314;2023-08-06T06:00:51;99761.02;;;9.28;100.00
64628;BME280;68467;50.960;0.314;2023-08-06T06:03:19;99764.72;;;9.60;100.00
64628;BME280;68467;50.960;0.314;2023-08-06T06:05:46;99765.42;;;9.99;100.00
64628;BME280;68467;50.960;0.314;2023-08-06T06:08:13;99761.76;;;10.53;100.00
64628;BME280;68467;50.960;0.314;2023-08-06T06:10:41;99763.26;;;10.28;100.00
64628;BME280;68467;50.960;0.314;2023-08-06T06:13:08;99766.87;;;10.30;100.00
64628;BME280;68467;50.960;0.314;2023-08-06T06:15:35;99768.76;;;10.40;100.00
64628;BME280;68467;50.960;0.314;2023-08-06T06:18:02;99777.24;;;10.16;100.00
64628;BME280;68467;50.960;0.314;2023-08-06T06:20:31;99771.10;;;10.15;100.00
64628;BME280;68467;50.960;0.314;2023-08-06T06:22:58;99778.27;;;10.32;100.00
64628;BME280;68467;50.960;0.314;2023-08-06T06:25:25;99773.96;;;10.04;100.00
64628;BME280;68467;50.960;0.314;2023-08-06T06:27:52;99775.85;;;10.51;100.00
64628;BME280;68467;50.960;0.314;2023-08-06T06:30:19;99781.19;;;10.21;100.00
64628;BME280;68467;50.960;0.314;2023-08-06T06:32:46;99780.53;;;10.36;100.00
64628;BME280;68467;50.960;0.314;2023-08-06T06:35:13;99789.76;;;10.54;100.00
64628;BME280;68467;50.960;0.314;2023-08-06T06:37:41;99786.21;;;10.65;100.00
64628;BME280;68467;50.960;0.314;2023-08-06T06:40:08;99796.41;;;10.40;100.00
64628;BME280;68467;50.960;0.314;2023-08-06T06:42:36;99793.29;;;10.94;100.00
64628;BME280;68467;50.960;0.314;2023-08-06T06:45:03;99793.97;;;11.25;100.00
64628;BME280;68467;50.960;0.314;2023-08-06T06:47:31;99799.83;;;10.75;100.00
64628;BME280;68467;50.960;0.314;2023-08-06T06:49:58;99803.38;;;10.62;100.00
64628;BME280;68467;50.960;0.314;2023-08-06T06:52:25;99804.13;;;10.91;100.00
64628;BME280;68467;50.960;0.314;2023-08-06T06:54:52;99805.29;;;10.78;100.00
64628;BME280;68467;50.960;0.314;2023-08-06T06:57:19;99805.28;;;11.69;100.00
64628;BME280;68467;50.960;0.314;2023-08-06T06:59:47;99813.98;;;11.79;100.00
64628;BME280;68467;50.960;0.314;2023-08-06T07:02:14;99817.87;;;11.17;100.00
64628;BME280;68467;50.960;0.314;2023-08-06T07:04:41;99822.73;;;11.65;100.00
64628;BME280;68467;50.960;0.314;2023-08-06T07:07:08;99812.76;;;11.62;100.00
64628;BME280;68467;50.960;0.314;2023-08-06T07:09:35;99813.04;;;11.96;100.00
64628;BME280;68467;50.960;0.314;2023-08-06T07:12:03;99816.54;;;11.77;100.00
64628;BME280;68467;50.960;0.314;2023-08-06T07:14:30;99817.38;;;11.64;100.00
64628;BME280;68467;50.960;0.314;2023-08-06T07:16:57;99821.91;;;11.60;100.00
64628;BME280;68467;50.960;0.314;2023-08-06T07:19:24;99818.83;;;11.89;100.00
64628;BME280;68467;50.960;0.314;2023-08-06T07:21:52;99829.35;;;11.50;100.00
64628;BME280;68467;50.960;0.314;2023-08-06T07:24:18;99832.00;;;12.18;100.00
64628;BME280;68467;50.960;0.314;2023-08-06T07:26:45;99831.85;;;11.66;100.00
64628;BME280;68467;50.960;0.314;2023-08-06T07:29:13;99835.97;;;11.42;100.00
64628;BME280;68467;50.960;0.314;2023-08-06T07:31:40;99845.52;;;11.61;100.00
64628;BME280;68467;50.960;0.314;2023-08-06T07:34:07;99844.17;;;11.68;100.00
64628;BME280;68467;50.960;0.314;2023-08-06T07:36:34;99844.69;;;11.69;100.00
64628;BME280;68467;50.960;0.314;2023-08-06T07:39:01;99844.15;;;12.19;100.00
64628;BME280;68467;50.960;0.314;2023-08-06T07:41:29;99843.75;;;12.23;100.00
64628;BME280;68467;50.960;0.314;2023-08-06T07:43:56;99849.13;;;13.28;100.00
64628;BME280;68467;50.960;0.314;2023-08-06T07:46:23;99847.27;;;12.92;100.00
64628;BME280;68467;50.960;0.314;2023-08-06T07:48:50;99853.69;;;13.27;100.00
64628;BME280;68467;50.960;0.314;2023-08-06T07:51:17;99861.15;;;12.67;100.00
64628;BME280;68467;50.960;0.314;2023-08-06T07:53:45;99869.10;;;12.50;100.00
64628;BME280;68467;50.960;0.314;2023-08-06T07:56:13;99873.67;;;12.76;100.00
64628;BME280;68467;50.960;0.314;2023-08-06T07:58:40;99870.58;;;12.78;100.00
64628;BME280;68467;50.960;0.314;2023-08-06T08:01:07;99870.84;;;13.22;100.00
64628;BME280;68467;50.960;0.314;2023-08-06T08:03:34;99868.81;;;13.54;100.00
64628;BME280;68467;50.960;0.314;2023-08-06T08:06:01;99876.06;;;13.87;100.00
64628;BME280;68467;50.960;0.314;2023-08-06T08:08:28;99876.66;;;14.15;100.00
64628;BME280;68467;50.960;0.314;2023-08-06T08:10:56;99875.33;;;13.94;100.00
64628;BME280;68467;50.960;0.314;2023-08-06T08:13:23;99876.27;;;13.90;100.00
64628;BME280;68467;50.960;0.314;2023-08-06T08:15:56;99882.71;;;13.38;100.00
64628;BME280;68467;50.960;0.314;2023-08-06T08:18:23;99882.78;;;13.76;100.00
64628;BME280;68467;50.960;0.314;2023-08-06T08:20:50;99886.83;;;13.63;100.00
64628;BME280;68467;50.960;0.314;2023-08-06T08:23:17;99886.00;;;13.82;100.00
64628;BME280;68467;50.960;0.314;2023-08-06T08:25:44;99884.73;;;13.13;100.00
64628;BME280;68467;50.960;0.314;2023-08-06T08:28:16;99885.23;;;13.85;100.00
64628;BME280;68467;50.960;0.314;2023-08-06T08:30:43;99889.97;;;13.88;100.00
64628;BME280;68467;50.960;0.314;2023-08-06T08:33:10;99895.16;;;13.79;100.00
64628;BME280;68467;50.960;0.314;2023-08-06T08:35:37;99894.69;;;14.08;100.00
64628;BME280;68467;50.960;0.314;2023-08-06T08:38:05;99897.38;;;13.36;100.00
64628;BME280;68467;50.960;0.314;2023-08-06T08:40:32;99896.76;;;14.38;100.00
64628;BME280;68467;50.960;0.314;2023-08-06T08:43:01;99895.05;;;13.67;100.00
64628;BME280;68467;50.960;0.314;2023-08-06T08:45:29;99889.32;;;14.25;100.00
64628;BME280;68467;50.960;0.314;2023-08-06T08:48:01;99890.25;;;14.48;100.00
64628;BME280;68467;50.960;0.314;2023-08-06T08:50:28;99884.64;;;15.04;100.00
64628;BME280;68467;50.960;0.314;2023-08-06T08:52:56;99885.29;;;15.32;100.00
64628;BME280;68467;50.960;0.314;2023-08-06T08:55:24;99887.92;;;15.07;100.00
64628;BME280;68467;50.960;0.314;2023-08-06T08:57:52;99886.10;;;15.40;100.00
64628;BME280;68467;50.960;0.314;2023-08-06T09:00:19;99882.48;;;14.73;100.00
64628;BME280;68467;50.960;0.314;2023-08-06T09:02:46;99888.15;;;14.73;100.00
64628;BME280;68467;50.960;0.314;2023-08-06T09:05:13;99893.61;;;15.13;100.00
64628;BME280;68467;50.960;0.314;2023-08-06T09:07:42;99891.04;;;15.64;100.00
64628;BME280;68467;50.960;0.314;2023-08-06T09:10:12;99892.73;;;15.78;100.00
64628;BME280;68467;50.960;0.314;2023-08-06T09:12:41;99900.14;;;15.98;100.00
64628;BME280;68467;50.960;0.314;2023-08-06T09:15:09;99897.82;;;15.42;100.00
64628;BME280;68467;50.960;0.314;2023-08-06T09:17:37;99898.75;;;15.54;100.00
64628;BME280;68467;50.960;0.314;2023-08-06T09:20:13;99902.68;;;15.57;100.00
64628;BME280;68467;50.960;0.314;2023-08-06T09:22:41;99904.63;;;16.00;100.00
64628;BME280;68467;50.960;0.314;2023-08-06T09:25:09;99905.62;;;15.31;100.00
64628;BME280;68467;50.960;0.314;2023-08-06T09:27:37;99908.15;;;15.12;100.00
64628;BME280;68467;50.960;0.314;2023-08-06T09:30:05;99914.15;;;15.44;100.00
64628;BME280;68467;50.960;0.314;2023-08-06T09:32:45;99911.88;;;15.08;100.00
64628;BME280;68467;50.960;0.314;2023-08-06T09:35:15;99914.29;;;15.17;100.00
64628;BME280;68467;50.960;0.314;2023-08-06T09:37:42;99920.45;;;15.72;100.00
64628;BME280;68467;50.960;0.314;2023-08-06T09:40:25;99915.54;;;15.20;100.00
64628;BME280;68467;50.960;0.314;2023-08-06T09:42:52;99921.08;;;15.22;100.00
64628;BME280;68467;50.960;0.314;2023-08-06T09:45:20;99921.58;;;15.22;100.00
64628;BME280;68467;50.960;0.314;2023-08-06T09:47:48;99928.33;;;15.29;100.00
64628;BME280;68467;50.960;0.314;2023-08-06T09:50:17;99923.04;;;15.08;100.00
64628;BME280;68467;50.960;0.314;2023-08-06T09:52:44;99930.19;;;14.59;100.00
64628;BME280;68467;50.960;0.314;2023-08-06T09:55:12;99934.11;;;15.49;100.00
64628;BME280;68467;50.960;0.314;2023-08-06T09:57:41;99929.59;;;15.46;100.00
64628;BME280;68467;50.960;0.314;2023-08-06T10:00:10;99931.89;;;15.70;100.00
64628;BME280;68467;50.960;0.314;2023-08-06T10:02:38;99932.15;;;15.57;100.00
64628;BME280;68467;50.960;0.314;2023-08-06T10:05:05;99933.37;;;15.60;100.00
64628;BME280;68467;50.960;0.314;2023-08-06T10:07:33;99930.10;;;15.47;100.00
64628;BME280;68467;50.960;0.314;2023-08-06T10:10:01;99934.73;;;15.63;100.00
64628;BME280;68467;50.960;0.314;2023-08-06T10:12:32;99936.62;;;16.13;100.00
64628;BME280;68467;50.960;0.314;2023-08-06T10:15:04;99940.83;;;16.33;100.00
64628;BME280;68467;50.960;0.314;2023-08-06T10:17:34;99944.26;;;15.89;100.00
64628;BME280;68467;50.960;0.314;2023-08-06T10:20:03;99944.05;;;15.83;100.00
64628;BME280;68467;50.960;0.314;2023-08-06T10:22:32;99943.22;;;15.75;100.00
64628;BME280;68467;50.960;0.314;2023-08-06T10:25:01;99945.35;;;16.07;100.00
64628;BME280;68467;50.960;0.314;2023-08-06T10:27:30;99944.44;;;16.03;100.00
64628;BME280;68467;50.960;0.314;2023-08-06T10:30:21;99941.72;;;16.57;100.00
64628;BME280;68467;50.960;0.314;2023-08-06T10:32:49;99941.67;;;16.28;100.00
64628;BME280;68467;50.960;0.314;2023-08-06T10:35:35;99941.06;;;16.74;100.00
64628;BME280;68467;50.960;0.314;2023-08-06T10:38:04;99939.52;;;17.15;100.00
64628;BME280;68467;50.960;0.314;2023-08-06T10:40:32;99948.19;;;16.80;100.00
64628;BME280;68467;50.960;0.314;2023-08-06T10:43:00;99942.41;;;16.98;100.00
64628;BME280;68467;50.960;0.314;2023-08-06T10:45:27;99949.45;;;17.01;100.00
64628;BME280;68467;50.960;0.314;2023-08-06T10:47:55;99961.65;;;16.28;100.00
64628;BME280;68467;50.960;0.314;2023-08-06T10:50:22;99961.64;;;16.52;100.00
64628;BME280;68467;50.960;0.314;2023-08-06T10:52:50;99959.64;;;16.27;100.00
64628;BME280;68467;50.960;0.314;2023-08-06T10:55:26;99963.99;;;16.47;100.00
64628;BME280;68467;50.960;0.314;2023-08-06T10:57:54;99962.06;;;16.63;100.00
64628;BME280;68467;50.960;0.314;2023-08-06T11:00:23;99962.55;;;16.49;100.00
64628;BME280;68467;50.960;0.314;2023-08-06T11:02:51;99958.61;;;17.21;100.00
64628;BME280;68467;50.960;0.314;2023-08-06T11:05:18;99966.70;;;16.74;100.00
64628;BME280;68467;50.960;0.314;2023-08-06T11:07:46;99962.66;;;16.22;100.00
64628;BME280;68467;50.960;0.314;2023-08-06T11:10:13;99960.52;;;16.43;100.00
64628;BME280;68467;50.960;0.314;2023-08-06T11:12:40;99960.95;;;16.83;100.00
64628;BME280;68467;50.960;0.314;2023-08-06T11:15:09;99961.24;;;16.55;100.00
64628;BME280;68467;50.960;0.314;2023-08-06T11:17:37;99961.90;;;16.81;100.00
64628;BME280;68467;50.960;0.314;2023-08-06T11:20:06;99963.98;;;16.75;100.00
64628;BME280;68467;50.960;0.314;2023-08-06T11:22:33;99969.26;;;16.48;100.00
64628;BME280;68467;50.960;0.314;2023-08-06T11:25:03;99964.71;;;16.93;100.00
64628;BME280;68467;50.960;0.314;2023-08-06T11:27:31;99967.38;;;16.88;100.00
64628;BME280;68467;50.960;0.314;2023-08-06T11:29:58;99970.80;;;16.89;100.00
64628;BME280;68467;50.960;0.314;2023-08-06T11:32:25;99967.48;;;16.79;100.00
64628;BME280;68467;50.960;0.314;2023-08-06T11:34:52;99965.82;;;16.60;100.00
64628;BME280;68467;50.960;0.314;2023-08-06T11:37:21;99960.41;;;16.98;100.00
64628;BME280;68467;50.960;0.314;2023-08-06T11:39:48;99960.09;;;17.43;100.00
64628;BME280;68467;50.960;0.314;2023-08-06T11:42:16;99955.21;;;17.69;100.00
64628;BME280;68467;50.960;0.314;2023-08-06T11:44:44;99945.46;;;17.95;100.00
64628;BME280;68467;50.960;0.314;2023-08-06T11:47:15;99938.25;;;18.02;100.00
64628;BME280;68467;50.960;0.314;2023-08-06T11:49:44;99940.45;;;17.89;100.00
64628;BME280;68467;50.960;0.314;2023-08-06T11:52:15;99941.61;;;17.84;100.00
64628;BME280;68467;50.960;0.314;2023-08-06T11:54:42;99946.07;;;17.68;100.00
64628;BME280;68467;50.960;0.314;2023-08-06T11:57:11;99942.06;;;17.98;100.00
64628;BME280;68467;50.960;0.314;2023-08-06T11:59:38;99943.76;;;17.86;100.00
64628;BME280;68467;50.960;0.314;2023-08-06T12:02:09;99946.50;;;18.22;100.00
64628;BME280;68467;50.960;0.314;2023-08-06T12:05:13;99957.21;;;18.48;100.00
64628;BME280;68467;50.960;0.314;2023-08-06T12:07:42;99952.89;;;18.24;100.00
64628;BME280;68467;50.960;0.314;2023-08-06T12:10:11;99964.19;;;18.09;100.00
64628;BME280;68467;50.960;0.314;2023-08-06T12:12:39;99961.86;;;16.70;100.00
64628;BME280;68467;50.960;0.314;2023-08-06T12:15:07;99968.89;;;16.90;100.00
64628;BME280;68467;50.960;0.314;2023-08-06T12:17:36;99962.02;;;17.08;100.00
64628;BME280;68467;50.960;0.314;2023-08-06T12:20:04;99960.00;;;17.32;100.00
64628;BME280;68467;50.960;0.314;2023-08-06T12:22:31;99955.55;;;17.33;100.00
64628;BME280;68467;50.960;0.314;2023-08-06T12:24:59;99947.94;;;18.48;100.00
64628;BME280;68467;50.960;0.314;2023-08-06T12:27:26;99954.86;;;18.10;100.00
64628;BME280;68467;50.960;0.314;2023-08-06T12:29:53;99956.19;;;18.93;100.00
64628;BME280;68467;50.960;0.314;2023-08-06T12:32:20;99959.01;;;18.24;100.00
64628;BME280;68467;50.960;0.314;2023-08-06T12:34:47;99964.65;;;17.75;100.00
64628;BME280;68467;50.960;0.314;2023-08-06T12:37:15;99967.54;;;18.11;100.00
64628;BME280;68467;50.960;0.314;2023-08-06T12:39:43;99971.76;;;18.55;100.00
64628;BME280;68467;50.960;0.314;2023-08-06T12:42:10;99970.87;;;18.23;100.00
64628;BME280;68467;50.960;0.314;2023-08-06T12:44:38;99973.53;;;18.21;100.00
64628;BME280;68467;50.960;0.314;2023-08-06T12:47:06;99973.45;;;18.79;100.00
64628;BME280;68467;50.960;0.314;2023-08-06T12:49:34;99972.68;;;19.09;100.00
64628;BME280;68467;50.960;0.314;2023-08-06T12:52:01;99966.88;;;19.03;100.00
64628;BME280;68467;50.960;0.314;2023-08-06T12:54:28;99969.10;;;18.76;100.00
64628;BME280;68467;50.960;0.314;2023-08-06T12:56:55;99970.12;;;18.46;100.00